Time;durP1;ratioP1;P1;durP2;ratioP2;P2;SDS_P1;SDS_P2;PMS_P1;PMS_P2;Temp;Humidity;BMP_temperature;BMP_pressure;BME280_temperature;BME280_humidity;BME280_pressure;Samples;Min_cycle;Max_cycle;Signal;HPM_P1;HPM_P2
2022/12/22 03:26:18;;;;;;;82.68;34.00;;;8.30;99.90;;;;;;5092880;28;20151;-72
2022/12/22 03:28:44;;;;;;;79.65;33.22;;;8.00;99.90;;;;;;5072385;28;20055;-72
2022/12/22 03:31:11;;;;;;;79.18;32.80;;;8.30;99.90;;;;;;5076025;28;20154;-72
2022/12/22 03:33:37;;;;;;;74.28;32.35;;;8.30;99.90;;;;;;5076087;28;20500;-71
2022/12/22 03:36:03;;;;;;;75.70;33.03;;;8.30;99.90;;;;;;5074197;28;20127;-71
2022/12/22 03:38:29;;;;;;;81.57;33.15;;;8.30;99.90;;;;;;5075735;28;20051;-72
2022/12/22 03:40:55;;;;;;;87.53;34.55;;;8.30;99.90;;;;;;5073373;28;20054;-71
2022/12/22 03:51:42;;;;;;;99.57;36.25;;;8.10;99.90;;;;;;5093502;28;20043;-71
2022/12/22 03:54:08;;;;;;;97.03;35.55;;;8.30;99.90;;;;;;5073715;28;20146;-71
2022/12/22 03:56:34;;;;;;;92.20;35.22;;;8.30;99.90;;;;;;5057247;28;20122;-72
2022/12/22 03:59:00;;;;;;;95.38;36.03;;;8.30;99.90;;;;;;5070046;28;20036;-71
2022/12/22 04:01:26;;;;;;;101.00;37.33;;;8.30;99.90;;;;;;5072835;28;20093;-71
2022/12/22 04:03:52;;;;;;;93.18;34.50;;;8.30;99.90;;;;;;5075405;28;20083;-71
2022/12/22 04:06:18;;;;;;;93.18;34.50;;;8.30;99.90;;;;;;5070125;28;20770;-71
2022/12/22 04:08:44;;;;;;;89.45;32.95;;;8.30;99.90;;;;;;5070481;28;20046;-71
2022/12/22 04:13:59;;;;;;;97.95;34.53;;;8.10;99.90;;;;;;5072094;28;20192;-71
2022/12/22 04:16:25;;;;;;;94.18;34.47;;;8.20;99.90;;;;;;5074101;28;20039;-71
2022/12/22 04:18:51;;;;;;;96.65;33.85;;;8.30;99.90;;;;;;5073672;28;20036;-71
2022/12/22 04:21:16;;;;;;;96.72;33.53;;;8.30;99.90;;;;;;5076530;28;20036;-71
2022/12/22 04:23:42;;;;;;;90.05;32.63;;;8.30;99.90;;;;;;5057096;28;20452;-72
2022/12/22 04:26:08;;;;;;;104.10;35.00;;;8.20;99.90;;;;;;5074893;28;20044;-71
2022/12/22 04:28:34;;;;;;;89.85;31.30;;;8.30;99.90;;;;;;5052435;28;20044;-71
2022/12/22 04:30:59;;;;;;;101.78;32.78;;;8.50;99.90;;;;;;5076532;28;20408;-71
2022/12/22 04:33:25;;;;;;;98.30;31.98;;;8.20;99.90;;;;;;5077432;28;20055;-72
2022/12/22 04:35:51;;;;;;;94.68;30.70;;;8.30;99.90;;;;;;5075979;28;20032;-71
2022/12/22 04:38:16;;;;;;;98.28;32.42;;;8.20;99.90;;;;;;5081242;28;20442;-71
2022/12/22 04:40:42;;;;;;;112.88;34.22;;;8.20;99.90;;;;;;5097378;28;20040;-72
2022/12/22 04:43:08;;;;;;;95.30;31.45;;;8.60;99.90;;;;;;5074873;28;20057;-71
2022/12/22 04:45:34;;;;;;;90.57;31.20;;;8.20;99.90;;;;;;5070542;28;20129;-71
2022/12/22 04:47:59;;;;;;;104.10;32.85;;;8.20;99.90;;;;;;5078014;28;20452;-72
2022/12/22 04:50:26;;;;;;;95.68;31.85;;;8.30;99.90;;;;;;5088479;28;20044;-71
2022/12/22 04:52:51;;;;;;;100.55;31.70;;;8.20;99.90;;;;;;5075153;28;20047;-71
2022/12/22 04:55:17;;;;;;;92.43;31.10;;;8.20;99.90;;;;;;5082857;28;20036;-72
2022/12/22 04:57:43;;;;;;;104.00;32.97;;;8.20;99.90;;;;;;5072749;28;20127;-72
2022/12/22 05:00:09;;;;;;;91.60;29.55;;;8.20;99.90;;;;;;5059367;28;20083;-71
2022/12/22 05:02:35;;;;;;;99.65;30.67;;;8.20;99.90;;;;;;5076882;28;20445;-72
2022/12/22 05:05:01;;;;;;;99.97;31.50;;;8.20;99.90;;;;;;5075834;28;20071;-71
2022/12/22 05:07:26;;;;;;;92.63;33.25;;;8.20;99.90;;;;;;5077658;28;20844;-72
2022/12/22 05:09:52;;;;;;;92.55;30.17;;;8.20;99.90;;;;;;5094269;28;20036;-72
2022/12/22 05:15:02;;;;;;;85.18;28.70;;;8.10;99.90;;;;;;5094789;28;20059;-71
2022/12/22 05:17:28;;;;;;;76.85;28.42;;;8.10;99.90;;;;;;5081361;28;20126;-71
2022/12/22 05:19:54;;;;;;;76.03;27.67;;;8.10;99.90;;;;;;5093105;28;20044;-71
2022/12/22 05:22:19;;;;;;;78.57;27.27;;;8.10;99.90;;;;;;5057659;28;20487;-71
2022/12/22 05:24:45;;;;;;;79.68;26.55;;;8.10;99.90;;;;;;5083478;28;20157;-71
2022/12/22 05:27:11;;;;;;;77.25;26.48;;;8.10;99.90;;;;;;5061947;28;20031;-72
2022/12/22 05:29:37;;;;;;;73.00;25.88;;;8.10;99.90;;;;;;5096657;28;20101;-72
2022/12/22 05:32:03;;;;;;;75.20;24.77;;;8.10;99.90;;;;;;5052413;28;20036;-71
2022/12/22 05:34:29;;;;;;;63.92;25.13;;;8.10;99.90;;;;;;5095624;28;20035;-71
2022/12/22 05:36:55;;;;;;;70.25;24.73;;;8.10;99.90;;;;;;5097233;28;20038;-71
2022/12/22 05:39:20;;;;;;;69.90;24.17;;;8.10;99.90;;;;;;5092638;28;20040;-71
2022/12/22 05:41:46;;;;;;;65.00;24.20;;;8.10;99.90;;;;;;5052332;28;20085;-71
2022/12/22 05:44:12;;;;;;;71.28;25.40;;;8.10;99.90;;;;;;5072444;28;20374;-71
2022/12/22 05:46:38;;;;;;;63.63;24.83;;;8.10;99.90;;;;;;5059522;28;20044;-71
2022/12/22 05:49:03;;;;;;;67.55;25.00;;;8.10;99.90;;;;;;5072686;28;20091;-71
2022/12/22 05:51:29;;;;;;;71.13;26.23;;;8.10;99.90;;;;;;5077544;28;20039;-72
2022/12/22 05:53:55;;;;;;;74.30;26.52;;;8.10;99.90;;;;;;5099340;27;20043;-71
2022/12/22 05:56:21;;;;;;;74.88;26.60;;;8.00;99.90;;;;;;5079252;28;20799;-72
2022/12/22 05:58:46;;;;;;;75.57;27.45;;;8.00;99.90;;;;;;5079707;28;20040;-72
2022/12/22 06:01:12;;;;;;;65.28;25.95;;;8.00;99.90;;;;;;5092770;28;20142;-72
2022/12/22 06:03:38;;;;;;;78.63;27.15;;;8.00;99.90;;;;;;5075641;28;20052;-71
2022/12/22 06:06:04;;;;;;;74.80;26.27;;;8.00;99.90;;;;;;5065767;28;20047;-71
2022/12/22 06:08:30;;;;;;;70.60;25.17;;;8.00;99.90;;;;;;5056175;28;20414;-71
2022/12/22 06:10:57;;;;;;;68.50;26.50;;;8.00;99.90;;;;;;5060805;28;20647;-71
2022/12/22 06:13:24;;;;;;;71.05;25.33;;;8.00;99.90;;;;;;5028881;28;20084;-72
2022/12/22 06:15:50;;;;;;;68.45;26.63;;;7.90;99.90;;;;;;5063368;28;20040;-72
2022/12/22 06:18:15;;;;;;;70.22;28.15;;;7.90;99.90;;;;;;5047726;28;20048;-72
2022/12/22 06:20:41;;;;;;;73.25;26.88;;;8.30;99.90;;;;;;5046096;28;20523;-72
2022/12/22 06:23:07;;;;;;;70.63;27.73;;;7.90;99.90;;;;;;5062814;28;20124;-72
2022/12/22 06:25:33;;;;;;;71.13;27.83;;;7.80;99.90;;;;;;5050362;28;20051;-71
2022/12/22 06:27:59;;;;;;;69.72;27.77;;;7.80;99.90;;;;;;5045298;28;20048;-71
2022/12/22 06:30:25;;;;;;;72.72;27.42;;;7.80;99.90;;;;;;5051509;28;20099;-72
2022/12/22 06:32:50;;;;;;;76.13;27.88;;;7.80;99.90;;;;;;5033435;28;20663;-71
2022/12/22 06:35:16;;;;;;;70.85;28.55;;;7.70;99.90;;;;;;5041767;28;20036;-71
2022/12/22 06:37:42;;;;;;;80.00;28.90;;;8.10;99.90;;;;;;5038988;28;20044;-72
2022/12/22 06:40:09;;;;;;;77.72;27.10;;;7.70;99.90;;;;;;5045221;28;20433;-72
2022/12/22 06:45:18;;;;;;;78.05;25.50;;;7.60;99.90;;;;;;5054943;28;20055;-71
2022/12/22 06:47:44;;;;;;;74.97;25.90;;;7.60;99.90;;;;;;5056435;28;20048;-71
2022/12/22 06:50:10;;;;;;;67.55;26.13;;;7.60;99.90;;;;;;5048256;28;20044;-71
2022/12/22 06:52:36;;;;;;;70.15;23.00;;;7.60;99.90;;;;;;5041432;28;20078;-72
2022/12/22 06:55:03;;;;;;;75.85;24.55;;;7.60;99.90;;;;;;5051519;28;20052;-71
2022/12/22 06:57:29;;;;;;;64.30;23.30;;;7.60;99.90;;;;;;5029523;28;20460;-71
2022/12/22 06:59:54;;;;;;;60.53;23.08;;;7.60;99.90;;;;;;5070020;28;20059;-71
2022/12/22 07:02:20;;;;;;;68.68;22.73;;;7.60;99.90;;;;;;5053612;28;20045;-71
2022/12/22 07:04:46;;;;;;;56.55;21.52;;;7.50;99.90;;;;;;5047142;28;20045;-72
2022/12/22 07:07:11;;;;;;;63.22;22.00;;;7.50;99.90;;;;;;5053753;28;20227;-72
2022/12/22 07:09:37;;;;;;;57.67;20.77;;;7.50;99.90;;;;;;5053017;28;20039;-71
2022/12/22 07:12:03;;;;;;;54.92;20.48;;;7.50;99.90;;;;;;5085859;28;20048;-72
2022/12/22 07:14:29;;;;;;;55.58;19.15;;;7.40;99.90;;;;;;5058446;28;20048;-71
2022/12/22 07:16:54;;;;;;;53.72;18.92;;;7.40;99.90;;;;;;5072805;28;20047;-72
2022/12/22 07:19:20;;;;;;;49.30;17.50;;;7.60;99.90;;;;;;5089646;28;20051;-71
2022/12/22 07:21:50;;;;;;;53.40;17.58;;;7.30;99.90;;;;;;5071314;28;20051;-71
2022/12/22 07:24:21;;;;;;;52.58;16.75;;;7.30;99.90;;;;;;5066730;28;20886;-71
2022/12/22 07:26:48;;;;;;;44.95;15.85;;;7.30;99.90;;;;;;5058078;28;20046;-71
2022/12/22 07:29:13;;;;;;;38.97;14.82;;;7.30;99.90;;;;;;5095887;28;20075;-72
2022/12/22 07:31:39;;;;;;;41.38;14.48;;;7.20;99.90;;;;;;5077032;28;20470;-72
2022/12/22 07:34:05;;;;;;;45.38;14.50;;;7.20;99.90;;;;;;5052265;28;20092;-72
2022/12/22 07:36:31;;;;;;;39.33;13.68;;;7.10;99.90;;;;;;5053203;28;20042;-71
2022/12/22 07:38:56;;;;;;;40.78;13.82;;;7.60;99.90;;;;;;5052372;28;21728;-71
2022/12/22 07:44:09;;;;;;;42.45;13.63;;;7.10;99.90;;;;;;5061934;28;20048;-71
2022/12/22 07:46:37;;;;;;;35.80;13.27;;;7.00;99.90;;;;;;5066739;28;21043;-72
2022/12/22 07:51:49;;;;;;;42.22;15.38;;;7.10;99.90;;;;;;5064926;28;20605;-70
2022/12/22 07:54:16;;;;;;;42.58;14.50;;;7.00;99.90;;;;;;5079442;28;20039;-71
2022/12/22 07:56:43;;;;;;;41.22;15.07;;;7.00;99.90;;;;;;5065111;28;20048;-71
2022/12/22 07:59:10;;;;;;;36.90;14.32;;;7.00;99.90;;;;;;5053074;28;20058;-72
2022/12/22 08:01:35;;;;;;;41.67;16.02;;;7.00;99.90;;;;;;5070084;28;20043;-71
2022/12/22 08:04:01;;;;;;;48.55;18.92;;;7.00;99.90;;;;;;5061476;28;20048;-71
2022/12/22 08:06:27;;;;;;;53.35;22.40;;;6.90;99.90;;;;;;5066127;28;20052;-71
2022/12/22 08:08:56;;;;;;;58.72;24.73;;;6.90;99.90;;;;;;5060467;28;20067;-71
2022/12/22 08:11:21;;;;;;;56.47;26.63;;;7.10;99.90;;;;;;5078043;28;20047;-71
2022/12/22 08:13:48;;;;;;;58.30;28.55;;;6.90;99.90;;;;;;5057058;28;20093;-71
2022/12/22 08:16:15;;;;;;;65.70;29.20;;;6.90;99.90;;;;;;5072141;27;20046;-71
2022/12/22 08:18:41;;;;;;;67.35;28.85;;;6.80;99.90;;;;;;5062973;27;20043;-71
2022/12/22 08:21:09;;;;;;;59.40;24.27;;;6.90;99.90;;;;;;5072778;27;20361;-71
2022/12/22 08:23:35;;;;;;;47.47;21.20;;;7.10;99.90;;;;;;5070760;27;20101;-71
2022/12/22 08:26:06;;;;;;;61.88;19.85;;;7.00;99.90;;;;;;5058482;27;20832;-71
2022/12/22 08:28:34;;;;;;;44.78;17.85;;;6.80;99.90;;;;;;5058079;28;20505;-71
2022/12/22 08:31:02;;;;;;;41.30;15.32;;;6.80;99.90;;;;;;5071839;27;20575;-71
2022/12/22 08:33:28;;;;;;;42.83;14.48;;;6.80;99.90;;;;;;5074543;28;20104;-71
2022/12/22 08:35:55;;;;;;;38.05;13.45;;;6.70;99.90;;;;;;5087050;28;20047;-71
2022/12/22 08:38:22;;;;;;;27.88;12.05;;;6.80;99.90;;;;;;5070863;28;20039;-72
2022/12/22 08:40:48;;;;;;;28.55;11.68;;;6.80;99.90;;;;;;5076421;28;20500;-71
2022/12/22 08:43:15;;;;;;;36.13;12.52;;;6.80;99.90;;;;;;5056528;27;20040;-71
2022/12/22 08:45:41;;;;;;;25.88;11.43;;;7.00;99.90;;;;;;5075170;27;20088;-71
2022/12/22 08:48:09;;;;;;;38.50;11.55;;;7.00;99.90;;;;;;5097306;27;20044;-72
2022/12/22 08:50:35;;;;;;;30.88;11.75;;;6.70;99.90;;;;;;5057993;28;20039;-71
2022/12/22 08:53:03;;;;;;;25.20;10.40;;;6.70;99.90;;;;;;5080452;28;20979;-72
2022/12/22 08:55:28;;;;;;;34.92;9.02;;;6.80;99.90;;;;;;5058085;28;20048;-72
2022/12/22 08:57:54;;;;;;;20.88;8.85;;;6.70;99.90;;;;;;5074647;27;20779;-71
2022/12/22 09:00:20;;;;;;;25.63;9.25;;;6.70;99.90;;;;;;5059755;27;20132;-71
2022/12/22 09:02:46;;;;;;;39.38;9.88;;;6.70;99.90;;;;;;5058891;28;20081;-71
2022/12/22 09:05:12;;;;;;;24.15;9.05;;;6.70;99.90;;;;;;5058585;27;20040;-71
2022/12/22 09:07:38;;;;;;;22.80;8.98;;;6.60;99.90;;;;;;5086060;28;20531;-71
2022/12/22 09:10:03;;;;;;;16.85;8.13;;;6.60;99.90;;;;;;5059508;28;20055;-71
2022/12/22 09:12:30;;;;;;;19.77;9.02;;;6.60;99.90;;;;;;5052406;28;20140;-71
2022/12/22 09:14:55;;;;;;;23.58;8.93;;;6.50;99.90;;;;;;5078272;27;20052;-72
2022/12/22 09:17:21;;;;;;;18.02;8.70;;;6.60;99.90;;;;;;5077815;28;20039;-72
2022/12/22 09:19:47;;;;;;;22.58;9.77;;;6.50;99.90;;;;;;5068788;28;20714;-72
2022/12/22 09:22:12;;;;;;;19.10;9.02;;;6.50;99.90;;;;;;5057615;27;20058;-72
2022/12/22 09:24:38;;;;;;;21.10;8.77;;;6.50;99.90;;;;;;5060777;28;20048;-72
2022/12/22 09:27:05;;;;;;;21.27;8.90;;;6.50;99.90;;;;;;5063761;28;20047;-71
2022/12/22 09:29:31;;;;;;;21.75;9.02;;;6.50;99.90;;;;;;5063224;28;20055;-72
2022/12/22 09:31:56;;;;;;;20.20;9.50;;;6.50;99.90;;;;;;5063182;28;20043;-72
2022/12/22 09:34:22;;;;;;;22.33;9.30;;;6.80;99.90;;;;;;5056601;28;20071;-71
2022/12/22 09:36:48;;;;;;;21.98;8.48;;;6.50;99.90;;;;;;5089753;28;20043;-72
2022/12/22 09:39:14;;;;;;;18.27;8.35;;;6.50;99.90;;;;;;5071569;28;20047;-71
2022/12/22 09:41:56;;;;;;;19.15;9.27;;;6.50;99.90;;;;;;5076786;28;20085;-71
2022/12/22 09:44:28;;;;;;;20.80;8.52;;;6.50;99.90;;;;;;5046452;28;20043;-72
2022/12/22 09:46:56;;;;;;;24.60;9.07;;;6.50;99.90;;;;;;5088545;28;20050;-72
2022/12/22 09:49:22;;;;;;;19.35;8.48;;;6.50;99.90;;;;;;5051958;28;20051;-72
2022/12/22 09:51:56;;;;;;;18.95;8.45;;;6.60;99.90;;;;;;5050473;28;20050;-73
2022/12/22 09:54:24;;;;;;;19.35;8.35;;;6.50;99.90;;;;;;5065205;28;20050;-72
2022/12/22 09:56:50;;;;;;;19.75;9.52;;;6.60;99.90;;;;;;5060027;28;20047;-72
2022/12/22 09:59:19;;;;;;;23.25;9.18;;;6.80;99.90;;;;;;5090705;27;20047;-71
2022/12/22 10:02:14;;;;;;;23.00;9.73;;;6.60;99.90;;;;;;5088790;27;20045;-72
2022/12/22 10:04:56;;;;;;;21.27;9.35;;;6.60;99.90;;;;;;5046347;28;20076;-71
2022/12/22 10:07:30;;;;;;;22.13;10.30;;;6.60;99.90;;;;;;5058244;28;20449;-72
2022/12/22 10:10:18;;;;;;;23.38;10.48;;;6.70;99.90;;;;;;5066691;28;20213;-71
2022/12/22 10:12:44;;;;;;;21.08;9.43;;;6.70;99.90;;;;;;5060422;28;20056;-72
2022/12/22 10:15:10;;;;;;;24.42;9.57;;;6.70;99.90;;;;;;5047583;28;20050;-72
2022/12/22 10:17:37;;;;;;;25.67;10.07;;;6.80;99.90;;;;;;5071061;28;20196;-73
2022/12/22 10:20:18;;;;;;;23.98;9.35;;;6.80;99.90;;;;;;5071240;28;20044;-73
2022/12/22 10:22:59;;;;;;;25.27;10.15;;;6.90;99.90;;;;;;5054565;28;20040;-73
2022/12/22 10:25:41;;;;;;;23.85;9.32;;;6.90;99.90;;;;;;5059052;28;20123;-73
2022/12/22 10:28:15;;;;;;;24.00;9.82;;;7.00;99.90;;;;;;5067537;28;20703;-72
2022/12/22 10:30:42;;;;;;;23.50;9.90;;;7.00;99.90;;;;;;5070002;28;20072;-72
2022/12/22 10:33:13;;;;;;;25.92;9.10;;;7.00;99.90;;;;;;5060035;28;20147;-73
2022/12/22 10:35:48;;;;;;;22.20;8.90;;;7.10;99.90;;;;;;5078182;28;20056;-72
2022/12/22 10:38:26;;;;;;;23.55;9.60;;;7.10;99.90;;;;;;5045000;28;20052;-73
2022/12/22 10:40:58;;;;;;;21.00;9.05;;;7.10;99.90;;;;;;5070124;28;20047;-72
2022/12/22 10:43:28;;;;;;;21.55;8.75;;;7.20;99.90;;;;;;5069147;27;20051;-71
2022/12/22 10:45:56;;;;;;;25.23;9.23;;;7.20;99.90;;;;;;5070760;28;20043;-74
2022/12/22 10:48:36;;;;;;;27.30;7.97;;;7.30;99.90;;;;;;5047920;28;20118;-73
2022/12/22 10:51:06;;;;;;;23.42;8.02;;;7.30;99.90;;;;;;5084235;28;20044;-73
2022/12/22 10:53:52;;;;;;;21.02;7.60;;;7.30;99.90;;;;;;5065702;28;20044;-72
2022/12/22 10:56:20;;;;;;;24.25;8.52;;;7.30;99.90;;;;;;5051964;28;20047;-72
2022/12/22 10:58:54;;;;;;;20.20;8.13;;;7.30;99.90;;;;;;5083746;27;20048;-73
2022/12/22 11:01:30;;;;;;;22.27;8.80;;;7.30;99.90;;;;;;5050498;28;20542;-72
2022/12/22 11:04:13;;;;;;;23.77;8.88;;;7.40;99.90;;;;;;5066065;28;20159;-73
2022/12/22 11:06:41;;;;;;;19.40;7.90;;;7.60;99.90;;;;;;5054833;28;20596;-72
2022/12/22 11:09:09;;;;;;;22.27;7.65;;;7.40;99.90;;;;;;5086244;28;20267;-72
2022/12/22 11:11:52;;;;;;;13.73;7.25;;;7.40;99.90;;;;;;5052688;28;20138;-71
2022/12/22 11:14:21;;;;;;;18.27;7.15;;;7.40;99.90;;;;;;5047278;28;20500;-72
2022/12/22 11:17:04;;;;;;;17.85;6.68;;;7.40;99.90;;;;;;5067258;28;20071;-73
2022/12/22 11:19:38;;;;;;;14.90;6.00;;;7.40;99.90;;;;;;5069213;28;20055;-72
2022/12/22 11:22:21;;;;;;;16.35;6.85;;;7.40;99.90;;;;;;5043967;28;20174;-73
2022/12/22 11:25:04;;;;;;;15.88;6.03;;;7.40;99.90;;;;;;5028211;28;20052;-72
2022/12/22 11:27:59;;;;;;;21.55;6.05;;;7.40;99.90;;;;;;5070575;28;20055;-73
2022/12/22 11:30:49;;;;;;;25.30;6.05;;;7.50;99.90;;;;;;5038642;28;20036;-72
2022/12/22 11:33:44;;;;;;;15.73;6.47;;;7.50;99.90;;;;;;5054280;28;20154;-72
2022/12/22 11:36:38;;;;;;;13.50;5.63;;;7.40;99.90;;;;;;5055096;28;20028;-72
2022/12/22 11:39:14;;;;;;;15.00;5.35;;;7.40;99.90;;;;;;5032091;28;20052;-73
2022/12/22 11:41:58;;;;;;;18.20;6.10;;;7.50;99.90;;;;;;5037467;28;20070;-73
2022/12/22 11:44:37;;;;;;;17.65;6.32;;;7.50;99.90;;;;;;5068880;28;20151;-74
2022/12/22 11:47:31;;;;;;;17.65;6.00;;;7.50;99.90;;;;;;5029602;28;20043;-73
2022/12/22 11:50:28;;;;;;;14.70;5.32;;;7.50;99.90;;;;;;5053967;28;20044;-73
2022/12/22 11:53:14;;;;;;;14.93;6.57;;;7.50;99.90;;;;;;5030694;28;20086;-73
2022/12/22 11:56:05;;;;;;;24.15;6.75;;;7.60;99.90;;;;;;5043616;28;20044;-73
2022/12/22 11:58:52;;;;;;;21.55;5.45;;;7.60;99.90;;;;;;5031980;28;20044;-73
2022/12/22 12:01:33;;;;;;;18.85;5.88;;;7.60;99.90;;;;;;5061195;28;20210;-73
2022/12/22 12:04:31;;;;;;;22.47;4.67;;;7.60;99.90;;;;;;5048609;28;20127;-73
2022/12/22 12:07:35;;;;;;;14.88;5.00;;;7.60;99.90;;;;;;5050180;28;20625;-73
2022/12/22 12:10:30;;;;;;;20.52;4.53;;;7.70;99.90;;;;;;5031443;28;20048;-73
2022/12/22 12:13:18;;;;;;;17.02;3.78;;;7.70;99.90;;;;;;5047514;28;20040;-73
2022/12/22 12:16:04;;;;;;;17.63;4.13;;;7.70;99.90;;;;;;5029994;28;20063;-73
2022/12/22 12:19:02;;;;;;;14.20;3.90;;;7.80;99.90;;;;;;5043614;28;20086;-73
2022/12/22 12:21:34;;;;;;;21.00;4.05;;;7.80;99.90;;;;;;5047495;28;20082;-73
2022/12/22 12:24:35;;;;;;;;;;;7.90;99.90;;;;;;5029466;28;20048;-72
2022/12/22 12:27:04;;;;;;;16.95;3.17;;;7.90;99.90;;;;;;4977652;28;20023;-73
2022/12/22 12:29:49;;;;;;;17.52;3.67;;;7.90;99.90;;;;;;5026052;28;20058;-73
2022/12/22 12:32:42;;;;;;;13.95;3.38;;;7.90;99.90;;;;;;5050117;28;20681;-71
2022/12/22 12:35:27;;;;;;;16.73;3.53;;;7.90;99.90;;;;;;5046021;28;20949;-73
2022/12/22 12:38:01;;;;;;;20.73;4.78;;;7.90;99.90;;;;;;5046017;28;20090;-74
2022/12/22 12:40:49;;;;;;;15.02;3.88;;;7.80;99.90;;;;;;5069908;28;20048;-73
2022/12/22 12:43:16;;;;;;;16.42;3.40;;;7.90;99.90;;;;;;5045392;28;20047;-73
2022/12/22 12:45:47;;;;;;;14.52;4.18;;;7.90;99.90;;;;;;5069467;28;20047;-71
2022/12/22 12:48:19;;;;;;;16.92;4.45;;;7.90;99.90;;;;;;5053355;28;20044;-73
2022/12/22 12:50:53;;;;;;;19.45;4.10;;;7.90;99.90;;;;;;5069516;28;20048;-73
2022/12/22 12:53:29;;;;;;;16.27;3.75;;;7.90;99.90;;;;;;5033999;28;20551;-73
2022/12/22 12:55:56;;;;;;;18.58;4.30;;;7.80;99.90;;;;;;5046826;28;20044;-73
2022/12/22 12:58:37;;;;;;;19.73;4.45;;;7.90;99.90;;;;;;5045198;28;20421;-73
2022/12/22 13:01:31;;;;;;;21.83;4.80;;;7.90;99.90;;;;;;5053621;28;20128;-73
2022/12/22 13:03:56;;;;;;;18.73;3.92;;;7.90;99.90;;;;;;5029740;28;20126;-73
2022/12/22 13:06:44;;;;;;;17.10;3.20;;;7.90;99.90;;;;;;5051814;28;20419;-73
2022/12/22 13:09:16;;;;;;;17.00;3.75;;;7.90;99.90;;;;;;5052999;28;22048;-73
2022/12/22 13:11:42;;;;;;;20.02;4.28;;;7.90;99.90;;;;;;5067955;28;20086;-73
2022/12/22 13:14:07;;;;;;;19.40;3.97;;;8.00;99.90;;;;;;5096345;27;20073;-73
2022/12/22 13:16:36;;;;;;;17.50;3.72;;;8.00;99.90;;;;;;5080051;28;20792;-72
2022/12/22 13:19:10;;;;;;;16.48;3.58;;;8.00;99.90;;;;;;5065224;28;20055;-73
2022/12/22 13:21:43;;;;;;;20.83;3.75;;;8.00;99.90;;;;;;5076859;27;20519;-73
2022/12/22 13:24:42;;;;;;;11.70;3.30;;;8.00;99.90;;;;;;5094908;27;20040;-74
2022/12/22 13:27:10;;;;;;;11.95;3.40;;;8.10;99.90;;;;;;5072225;28;20047;-72
2022/12/22 13:29:41;;;;;;;15.23;3.40;;;8.10;99.90;;;;;;5075691;28;20126;-73
2022/12/22 13:32:15;;;;;;;19.85;3.53;;;8.10;99.90;;;;;;5071491;28;20131;-72
2022/12/22 13:34:55;;;;;;;20.00;3.55;;;8.10;99.90;;;;;;5058930;28;20039;-73
2022/12/22 13:37:24;;;;;;;20.48;4.13;;;8.10;99.90;;;;;;5074017;28;20056;-72
2022/12/22 13:40:13;;;;;;;15.77;3.88;;;8.10;99.90;;;;;;5083886;27;20050;-73
2022/12/22 13:42:58;;;;;;;15.95;3.20;;;8.10;99.90;;;;;;5063525;28;22655;-73
2022/12/22 13:45:36;;;;;;;15.95;3.42;;;8.20;99.90;;;;;;5064000;28;20036;-72
2022/12/22 13:48:29;;;;;;;19.60;3.78;;;8.10;99.90;;;;;;5044059;28;20165;-73
2022/12/22 13:51:01;;;;;;;12.57;3.42;;;8.10;99.90;;;;;;5083015;28;20055;-72
2022/12/22 13:53:31;;;;;;;18.23;4.35;;;8.10;99.90;;;;;;5050459;28;20056;-71
2022/12/22 13:55:57;;;;;;;15.85;4.38;;;8.20;99.90;;;;;;5063282;28;20763;-72
2022/12/22 13:58:39;;;;;;;13.50;3.72;;;8.30;99.90;;;;;;5062322;28;20044;-73
2022/12/22 14:01:11;;;;;;;17.17;4.57;;;8.20;99.90;;;;;;5052633;28;20665;-73
2022/12/22 14:03:47;;;;;;;18.30;4.35;;;8.30;99.90;;;;;;5090668;28;20047;-72
2022/12/22 14:06:26;;;;;;;17.35;4.10;;;8.30;99.90;;;;;;5080313;27;20124;-73
2022/12/22 14:08:54;;;;;;;14.40;5.07;;;8.50;99.90;;;;;;5085932;27;20044;-73
2022/12/22 14:11:20;;;;;;;19.38;4.38;;;8.30;99.90;;;;;;5061192;28;20052;-73
2022/12/22 14:13:46;;;;;;;19.75;4.95;;;8.30;99.90;;;;;;5052223;28;20036;-73
2022/12/22 14:16:14;;;;;;;13.80;3.50;;;8.30;99.90;;;;;;5047167;28;20037;-73
2022/12/22 14:18:40;;;;;;;10.75;3.40;;;8.30;99.90;;;;;;5051191;28;20539;-72
2022/12/22 14:21:07;;;;;;;12.68;3.30;;;8.30;99.90;;;;;;5055839;28;20048;-73
2022/12/22 14:23:37;;;;;;;9.88;3.03;;;8.30;99.90;;;;;;5068457;28;20046;-73
2022/12/22 14:26:05;;;;;;;21.50;3.50;;;8.30;99.90;;;;;;5070543;28;20054;-73
2022/12/22 14:28:49;;;;;;;12.88;3.63;;;8.30;99.90;;;;;;5066859;28;20048;-73
2022/12/22 14:31:16;;;;;;;16.85;3.40;;;8.30;99.90;;;;;;5066348;28;20044;-72
2022/12/22 14:33:53;;;;;;;15.88;3.15;;;8.30;99.90;;;;;;5052448;28;20048;-72
2022/12/22 14:36:24;;;;;;;19.80;3.53;;;8.40;99.90;;;;;;5066260;28;20044;-72
2022/12/22 14:38:57;;;;;;;16.13;3.30;;;8.30;99.90;;;;;;5050116;28;20078;-72
2022/12/22 14:41:50;;;;;;;13.95;3.03;;;8.30;99.90;;;;;;5038474;28;20051;-72
2022/12/22 14:44:24;;;;;;;17.75;4.15;;;8.30;99.90;;;;;;5048778;28;20036;-72
2022/12/22 14:47:02;;;;;;;18.70;3.28;;;8.30;99.90;;;;;;5036852;28;20054;-73
2022/12/22 14:49:29;;;;;;;22.63;3.40;;;8.30;99.90;;;;;;5055971;28;20551;-72
2022/12/22 14:51:56;;;;;;;12.27;2.92;;;8.30;99.90;;;;;;5037569;28;20125;-73
2022/12/22 14:54:25;;;;;;;14.95;2.85;;;8.30;99.90;;;;;;5064774;28;20649;-72
2022/12/22 14:56:56;;;;;;;13.02;2.45;;;8.30;99.90;;;;;;5047108;28;20052;-72
2022/12/22 14:59:26;;;;;;;12.52;2.33;;;8.30;99.90;;;;;;5037298;28;20044;-72
2022/12/22 15:02:18;;;;;;;8.52;2.38;;;8.30;99.90;;;;;;5039148;28;20047;-72
2022/12/22 15:04:43;;;;;;;13.73;2.42;;;8.20;99.90;;;;;;5056492;28;20053;-73
2022/12/22 15:07:19;;;;;;;14.05;2.53;;;8.20;99.90;;;;;;5059591;28;20532;-73
2022/12/22 15:09:44;;;;;;;14.27;2.47;;;8.20;99.90;;;;;;5060066;28;20044;-73
2022/12/22 15:12:13;;;;;;;15.52;2.63;;;8.20;99.90;;;;;;5037695;28;20071;-73
2022/12/22 15:14:39;;;;;;;9.05;2.70;;;8.10;99.90;;;;;;5059283;28;20059;-73
2022/12/22 15:17:14;;;;;;;14.93;3.20;;;8.10;99.90;;;;;;5045342;28;20120;-72
2022/12/22 15:19:40;;;;;;;13.10;2.97;;;8.10;99.90;;;;;;5081338;28;20484;-73
2022/12/22 15:22:07;;;;;;;13.88;3.22;;;8.10;99.90;;;;;;5062915;28;20055;-73
2022/12/22 15:24:32;;;;;;;14.23;3.63;;;8.00;99.90;;;;;;5076247;27;20047;-73
2022/12/22 15:26:58;;;;;;;13.13;2.42;;;8.00;99.90;;;;;;5057381;28;20039;-73
2022/12/22 15:29:24;;;;;;;12.45;2.40;;;8.00;99.90;;;;;;5081866;28;20055;-74
2022/12/22 15:31:50;;;;;;;14.20;2.80;;;8.00;99.90;;;;;;5080441;28;20078;-73
2022/12/22 15:34:25;;;;;;;12.50;2.75;;;7.90;99.90;;;;;;5057204;28;20039;-74
2022/12/22 15:36:52;;;;;;;12.40;2.85;;;7.90;99.90;;;;;;5058281;28;20341;-73
2022/12/22 15:39:19;;;;;;;16.60;3.00;;;7.90;99.90;;;;;;5040288;28;20047;-73
2022/12/22 15:41:45;;;;;;;13.25;3.65;;;7.90;99.90;;;;;;5033681;28;21855;-74
2022/12/22 15:44:11;;;;;;;14.30;3.17;;;7.90;99.90;;;;;;5054623;28;20048;-74
2022/12/22 15:46:41;;;;;;;17.38;4.00;;;8.10;99.90;;;;;;5040075;28;20472;-73
2022/12/22 15:49:20;;;;;;;14.52;3.70;;;7.80;99.90;;;;;;5073602;28;20164;-74
2022/12/22 15:51:55;;;;;;;12.57;3.60;;;7.80;99.90;;;;;;5075079;28;20189;-73
2022/12/22 15:54:21;;;;;;;10.95;3.58;;;7.80;99.90;;;;;;5073089;27;20127;-73
2022/12/22 15:56:49;;;;;;;15.00;3.65;;;7.80;99.90;;;;;;5063334;28;20047;-73
2022/12/22 15:59:19;;;;;;;13.00;4.07;;;7.80;99.90;;;;;;5059090;28;20155;-72
2022/12/22 16:01:45;;;;;;;12.90;4.60;;;7.80;99.90;;;;;;5073001;28;20055;-73
2022/12/22 16:04:11;;;;;;;15.15;4.68;;;7.80;99.90;;;;;;5055618;28;20046;-73
2022/12/22 16:06:39;;;;;;;11.02;4.78;;;7.80;99.90;;;;;;5058123;28;20908;-73
2022/12/22 16:09:11;;;;;;;14.63;4.95;;;7.80;99.90;;;;;;5059652;28;20050;-73
2022/12/22 16:11:37;;;;;;;18.38;5.28;;;7.70;99.90;;;;;;5050581;28;20048;-73
2022/12/22 16:14:04;;;;;;;14.52;5.28;;;7.70;99.90;;;;;;5036915;28;20052;-74
2022/12/22 16:16:30;;;;;;;14.43;4.70;;;7.70;99.90;;;;;;5036948;28;20051;-73
2022/12/22 16:18:55;;;;;;;14.85;4.95;;;7.70;99.90;;;;;;5033330;28;20040;-73
2022/12/22 16:21:28;;;;;;;11.88;5.13;;;7.70;99.90;;;;;;5054296;28;20572;-73
2022/12/22 16:23:54;;;;;;;14.73;5.68;;;7.70;99.90;;;;;;5071641;28;20424;-74
2022/12/22 16:26:21;;;;;;;16.77;5.63;;;7.70;99.90;;;;;;5035271;28;20066;-73
2022/12/22 16:28:47;;;;;;;12.93;5.25;;;7.70;99.90;;;;;;5057586;28;20036;-74
2022/12/22 16:31:21;;;;;;;12.20;5.47;;;7.70;99.90;;;;;;5063747;28;20048;-73
2022/12/22 16:33:48;;;;;;;16.23;6.13;;;7.60;99.90;;;;;;5053547;28;20155;-73
2022/12/22 16:36:14;;;;;;;13.52;5.35;;;7.70;99.90;;;;;;5043977;28;20113;-73
2022/12/22 16:38:40;;;;;;;12.23;5.68;;;7.60;99.90;;;;;;5040468;28;20048;-73
2022/12/22 16:41:19;;;;;;;15.65;5.68;;;8.00;99.90;;;;;;5059345;28;20041;-73
2022/12/22 16:43:45;;;;;;;15.23;5.68;;;7.60;99.90;;;;;;5044811;28;20135;-73
2022/12/22 16:46:15;;;;;;;13.73;5.90;;;7.60;99.90;;;;;;5046455;28;20852;-73
2022/12/22 16:48:49;;;;;;;14.52;5.82;;;7.60;99.90;;;;;;5047814;28;20164;-73